OPKC/KHI METAR and TAF weather

Enter ICAO airport designator
Station Type Date Time Source
OPKC METAR 2020/09/19 02:00 UTC NOAA

OPKC 190200Z 00000KT 6000 FEW020 27/25 Q1002 NOSIG


Station Type Date Time Source
OPKC Decoded METAR 2020/09/19 02:00 UTC NOAA

Karachi Airport, Pakistan (OPKC) 24-54N 067-08E 22M
Sep 18, 2020 - 10:00 PM EDT / 2020.09.19 0200 UTC
Wind: Calm:0
Visibility: 3 mile(s):0
Sky conditions: mostly clear
Temperature: 80 F (27 C)
Dew Point: 77 F (25 C)
Relative Humidity: 88%
Pressure (altimeter): 29.59 in. Hg (1002 hPa)
ob: OPKC 190200Z 00000KT 6000 FEW020 27/25 Q1002 NOSIG
cycle: 2

Station Type Date Time Source
OPKC TAF 2020/09/18 18:30 UTC NOAA

TAF OPKC 181530Z 1818/1924 23008KT 6000 SCT030 BKN100
TEMPO 1900/1904 21006KT 4000 HZ SCT030
FM190600 20008G18KT 6000 NSC

Example: see airport list